Ira, TX (79527)

6:33 AM CST on February 28, 2015 (GMT -0600)
Alenco | Change Station
CLOSE
Current Station
Personal Weather Station
Location: Colorado City, TX
Elevation: 2070 ft
Nearby Weather Stations
Active Advisory: Winter Weather Advisory Active Notice: Record Report, Local Storm Report

Elev 2070 ft 32.38 °N, 100.87 °W | Updated 42 seconds ago

Overcast
Overcast
18.7 °F
Feels Like 9 °F
N
7.3
Wind Variable Wind from ENE

Today
High -- | Low -- °F
--% Chance of Precip.
Yesterday
High -- | Low -- °F
Precip. -- in
7:13 AM 6:40 PM
Waxing Gibbous, 77% visible
Pressure 30.28 in
Visibility 1.2 miles
Clouds Overcast 100 ft
Windchill 9 °F
Dew Point 18 °F
Humidity 97%
Rainfall 0.00 in
Snow Depth Not available.
UV 0 out of 12
Pollen 4.20 out of 12
Air Quality Not available.
Flu Activity Not available.
METAR KSWW 281215Z AUTO 00000KT 1 1/4SM OVC001 M07/M08 A3028 RMK AO2 T10711077

More Conditions Fewer Conditions

Pressure 30.28 in
Visibility 1.2 miles
Clouds Overcast 100 ft
Windchill 9 °F
Dew Point 18 °F
Humidity 97%
Rainfall 0.00 in
Snow Depth Not available.
UV 0 out of 12
Pollen 4.20 out of 12
Air Quality Not available.
Flu Activity Not available.
METAR KSWW 281215Z AUTO 00000KT 1 1/4SM OVC001 M07/M08 A3028 RMK AO2 T10711077

More Conditions Fewer Conditions

10-Day Weather Forecast

Almanac

Astronomy

Feb. 28, 2015 Rise Set
Actual Time
Civil Twilight
Nautical Twilight
Astronomical Twilight
Moon
Length of Visible Light
Length of Day
Tomorrow will be .
, % of the Moon is Illuminated

Today's Extremes

State Highs State Lows

Community

WunderPhotos

Upload Photos

1,800,999 photos uploaded!

WunderBlogs® & News

Nearby

Air Quality

  Air Quality AQ Index Pollutant
Not available.

Snow Depth

Station Depth Elevation

Earthquake Activity

City Distance Mag. Time & Date
Minimum magnitude displayed is 2.5.

Coastal Water Temperatures

Place Temperature

Nearby Weather Stations

Winter Weather Advisory
Statement as of 3:55 AM MST on February 28, 2015

... Winter Weather Advisory remains in effect until noon CST
/11 am MST/ today...

* event... freezing drizzle and light snow.

* Timing... until noon CST/11 am MST today.

* Impacts... accumulating snow and ice may result in slick and
hazardous roadways... particularly bridges and overpasses.
Reductions in visibility due to freezing fog is also expected.

* Ice accumulations... less than a tenth of an inch.

Precautionary/preparedness actions...

A Winter Weather Advisory means that periods of light snow and
freezing drizzle will cause travel difficulties. Be prepared for
slippery roads and limited visibilities... and use caution while
driving.